Time;durP1;ratioP1;P1;durP2;ratioP2;P2;SDS_P1;SDS_P2;PMS_P1;PMS_P2;Temp;Humidity;BMP_temperature;BMP_pressure;BME280_temperature;BME280_humidity;BME280_pressure;Samples;Min_cycle;Max_cycle;Signal;HPM_P1;HPM_P2
2021/01/16 00:01:59;;;;;;;13.15;10.20;;;5.10;87.60;;;;;;5051788;28;20208;-75
2021/01/16 00:04:25;;;;;;;12.60;9.98;;;5.10;87.90;;;;;;5051545;28;20268;-75
2021/01/16 00:06:52;;;;;;;13.50;10.50;;;5.10;87.70;;;;;;5051370;28;20258;-74
2021/01/16 00:09:17;;;;;;;12.73;9.68;;;5.10;87.20;;;;;;5051588;28;20387;-74
2021/01/16 00:11:43;;;;;;;14.10;11.30;;;5.10;88.20;;;;;;5049317;28;20633;-74
2021/01/16 00:14:09;;;;;;;12.60;10.33;;;5.10;88.50;;;;;;5051582;28;20256;-74
2021/01/16 00:16:35;;;;;;;13.17;10.50;;;5.10;88.60;;;;;;5050509;28;20466;-75
2021/01/16 00:19:00;;;;;;;14.57;9.87;;;5.10;88.20;;;;;;5051609;28;20228;-75
2021/01/16 00:21:26;;;;;;;11.50;9.40;;;5.10;88.00;;;;;;5051261;28;20221;-74
2021/01/16 00:23:52;;;;;;;10.93;9.20;;;5.10;87.70;;;;;;5051124;28;20226;-75
2021/01/16 00:26:17;;;;;;;12.97;9.90;;;5.10;87.90;;;;;;5051219;28;20182;-74
2021/01/16 00:28:43;;;;;;;12.90;9.80;;;5.10;87.70;;;;;;5050705;28;20186;-74
2021/01/16 00:31:09;;;;;;;13.70;10.50;;;5.10;88.10;;;;;;5051264;28;20178;-75
2021/01/16 00:33:36;;;;;;;13.50;9.83;;;5.10;88.50;;;;;;5050867;28;20177;-75
2021/01/16 00:36:04;;;;;;;14.40;10.00;;;5.10;88.20;;;;;;5051293;28;20178;-75
2021/01/16 00:38:36;;;;;;;13.02;9.93;;;5.00;87.60;;;;;;5052083;28;20170;-75
2021/01/16 00:41:02;;;;;;;13.98;9.68;;;5.10;87.40;;;;;;5054994;28;20236;-75
2021/01/16 00:43:27;;;;;;;11.33;8.63;;;5.00;87.20;;;;;;5055049;28;20652;-75
2021/01/16 00:45:53;;;;;;;11.20;8.70;;;5.00;87.40;;;;;;5052982;28;20177;-74
2021/01/16 00:48:21;;;;;;;14.90;10.17;;;5.00;87.70;;;;;;5054831;28;20921;-74
2021/01/16 00:50:48;;;;;;;13.57;9.75;;;5.10;88.20;;;;;;5054389;28;21391;-74
2021/01/16 00:53:14;;;;;;;13.77;8.98;;;5.00;87.50;;;;;;5054651;28;20174;-73
2021/01/16 00:55:40;;;;;;;10.88;8.73;;;5.10;87.30;;;;;;5052715;28;20217;-73
2021/01/16 00:58:14;;;;;;;12.50;10.00;;;5.10;87.00;;;;;;5052759;28;20257;-74
2021/01/16 01:00:43;;;;;;;14.25;9.40;;;5.10;87.60;;;;;;5036223;28;20197;-74
2021/01/16 01:03:09;;;;;;;11.02;8.65;;;5.00;87.50;;;;;;5054320;28;20660;-75
2021/01/16 01:05:35;;;;;;;12.20;9.90;;;5.10;87.10;;;;;;5053784;28;20178;-75
2021/01/16 01:08:01;;;;;;;13.57;9.55;;;5.00;87.00;;;;;;5054217;28;20420;-75
2021/01/16 01:10:30;;;;;;;12.10;9.27;;;5.00;86.70;;;;;;5054456;28;20253;-74
2021/01/16 01:12:57;;;;;;;11.07;8.60;;;5.00;86.80;;;;;;5053350;28;20170;-74
2021/01/16 01:15:22;;;;;;;12.50;9.93;;;5.10;87.00;;;;;;5053973;28;20178;-74
2021/01/16 01:17:59;;;;;;;12.27;8.70;;;5.10;86.50;;;;;;5053622;28;20673;-74
2021/01/16 01:20:26;;;;;;;11.48;8.95;;;5.10;86.60;;;;;;5054234;28;20209;-74
2021/01/16 01:22:52;;;;;;;13.55;9.52;;;5.10;86.50;;;;;;5035484;28;20985;-74
2021/01/16 01:25:19;;;;;;;12.52;9.48;;;5.10;85.90;;;;;;5053789;28;20285;-73
2021/01/16 01:27:52;;;;;;;11.27;8.70;;;5.10;86.10;;;;;;5053177;28;20182;-74
2021/01/16 01:30:20;;;;;;;11.43;8.55;;;5.10;87.70;;;;;;5054160;28;20166;-73
2021/01/16 01:32:46;;;;;;;12.05;9.55;;;5.10;86.20;;;;;;5053612;28;20188;-73
2021/01/16 01:35:13;;;;;;;12.40;9.13;;;5.00;85.70;;;;;;5055185;28;20177;-73
2021/01/16 01:37:40;;;;;;;10.38;8.30;;;5.00;85.80;;;;;;5054259;28;20256;-74
2021/01/16 01:40:07;;;;;;;10.35;8.68;;;5.00;84.90;;;;;;5053770;28;20553;-74
2021/01/16 01:42:32;;;;;;;11.05;8.40;;;4.90;85.20;;;;;;5052781;28;20173;-74
2021/01/16 01:44:58;;;;;;;12.70;8.67;;;5.00;85.00;;;;;;5053336;28;20621;-74
2021/01/16 01:47:24;;;;;;;11.57;9.10;;;4.90;85.00;;;;;;5053560;28;20185;-74
2021/01/16 01:49:50;;;;;;;13.25;8.38;;;4.90;85.80;;;;;;5059602;28;20634;-74
2021/01/16 01:52:18;;;;;;;10.67;8.47;;;4.90;86.60;;;;;;5064032;28;20224;-74
2021/01/16 01:54:47;;;;;;;10.70;8.88;;;4.90;87.00;;;;;;5061012;28;20180;-74
2021/01/16 01:57:15;;;;;;;13.27;8.73;;;5.00;87.00;;;;;;5062972;28;20175;-74
2021/01/16 01:59:43;;;;;;;11.73;9.07;;;5.00;86.70;;;;;;5060642;28;20176;-74
2021/01/16 02:02:10;;;;;;;11.18;8.25;;;5.00;86.70;;;;;;5063085;28;20673;-74
2021/01/16 02:04:37;;;;;;;17.98;9.85;;;5.00;87.20;;;;;;5059921;28;20181;-74
2021/01/16 02:07:25;;;;;;;11.32;9.30;;;5.00;87.20;;;;;;5060922;28;20230;-74
2021/01/16 02:09:51;;;;;;;12.35;9.15;;;5.00;86.90;;;;;;5060636;28;20264;-74
2021/01/16 02:12:19;;;;;;;13.10;8.80;;;5.00;87.00;;;;;;5061450;28;20507;-74
2021/01/16 02:15:16;;;;;;;10.60;8.20;;;5.00;87.30;;;;;;5061157;28;20179;-74
2021/01/16 02:17:43;;;;;;;12.70;8.73;;;5.10;87.00;;;;;;5063037;28;20177;-74
2021/01/16 02:20:11;;;;;;;13.52;8.82;;;5.00;87.00;;;;;;5060938;28;20254;-74
2021/01/16 02:23:06;;;;;;;12.90;8.93;;;5.00;86.50;;;;;;5060623;28;20182;-74
2021/01/16 02:25:41;;;;;;;10.75;8.63;;;5.00;86.30;;;;;;5047548;28;20193;-74
2021/01/16 02:28:21;;;;;;;14.70;9.60;;;5.00;86.30;;;;;;5042642;28;20260;-75
2021/01/16 02:30:49;;;;;;;10.57;7.63;;;5.10;86.90;;;;;;5058828;28;20540;-74
2021/01/16 02:33:19;;;;;;;9.40;8.02;;;5.00;87.10;;;;;;5059943;28;20174;-74
2021/01/16 02:36:02;;;;;;;12.60;8.60;;;5.10;87.10;;;;;;5057662;28;20166;-74
2021/01/16 02:38:45;;;;;;;9.38;8.07;;;5.10;86.00;;;;;;5059522;28;20216;-74
2021/01/16 02:41:47;;;;;;;11.70;8.98;;;5.10;85.90;;;;;;5057903;28;20883;-74
2021/01/16 02:44:19;;;;;;;11.30;8.55;;;5.10;86.00;;;;;;5060885;28;20252;-74
2021/01/16 02:46:58;;;;;;;11.35;9.52;;;5.10;86.60;;;;;;5058025;28;20186;-74
2021/01/16 02:49:37;;;;;;;11.80;9.52;;;5.10;86.50;;;;;;5060152;28;20584;-75
2021/01/16 02:52:04;;;;;;;13.68;10.07;;;5.10;86.80;;;;;;5047870;28;20189;-74
2021/01/16 02:54:41;;;;;;;12.70;9.90;;;5.10;87.50;;;;;;5072728;28;20256;-74
2021/01/16 02:57:09;;;;;;;11.98;9.07;;;5.10;87.30;;;;;;5071901;28;20164;-74
2021/01/16 02:59:46;;;;;;;14.25;9.63;;;5.10;87.40;;;;;;5051593;28;20577;-75
2021/01/16 03:02:13;;;;;;;13.43;9.85;;;5.10;87.00;;;;;;5051628;28;20542;-74
2021/01/16 03:04:39;;;;;;;10.27;8.70;;;5.10;87.40;;;;;;5051515;28;20187;-75
2021/01/16 03:07:07;;;;;;;13.50;9.70;;;5.10;87.80;;;;;;5051188;28;20625;-75
2021/01/16 03:09:34;;;;;;;15.73;11.05;;;5.10;88.10;;;;;;5051674;28;20589;-74
2021/01/16 03:12:00;;;;;;;13.70;10.63;;;5.10;87.80;;;;;;5052704;28;20186;-74
2021/01/16 03:14:54;;;;;;;14.27;10.10;;;5.10;87.30;;;;;;5045040;28;20189;-74
2021/01/16 03:17:24;;;;;;;13.40;9.40;;;5.20;86.70;;;;;;5053050;28;20172;-73
2021/01/16 03:19:50;;;;;;;12.88;10.13;;;5.20;86.80;;;;;;5051917;28;20158;-74
2021/01/16 03:22:24;;;;;;;14.17;9.80;;;5.20;86.20;;;;;;5052157;28;20217;-74
2021/01/16 03:24:52;;;;;;;13.32;10.13;;;5.20;86.30;;;;;;5051330;28;20519;-74
2021/01/16 03:27:18;;;;;;;13.57;9.68;;;5.20;85.60;;;;;;5051375;28;20565;-74
2021/01/16 03:29:44;;;;;;;13.43;9.68;;;5.20;86.10;;;;;;5051374;28;20256;-74
2021/01/16 03:32:11;;;;;;;11.15;9.38;;;5.20;86.00;;;;;;5051779;28;20200;-74
2021/01/16 03:34:39;;;;;;;13.18;9.70;;;5.20;86.10;;;;;;5050059;28;20640;-74
2021/01/16 03:37:05;;;;;;;15.23;9.98;;;5.20;85.80;;;;;;5042542;28;20201;-74
2021/01/16 03:39:31;;;;;;;12.43;9.68;;;5.20;86.20;;;;;;5051980;28;20178;-74
2021/01/16 03:41:57;;;;;;;16.07;10.50;;;5.20;86.00;;;;;;5051235;28;20211;-74
2021/01/16 03:44:22;;;;;;;13.60;10.50;;;5.20;85.60;;;;;;5051888;28;20244;-74
2021/01/16 03:46:48;;;;;;;15.23;11.53;;;5.20;85.70;;;;;;5051183;28;20189;-73
2021/01/16 03:49:15;;;;;;;14.80;10.90;;;5.20;85.80;;;;;;5050062;28;20680;-73
2021/01/16 03:51:40;;;;;;;13.30;10.73;;;5.20;86.00;;;;;;5051049;28;20805;-74
2021/01/16 03:54:08;;;;;;;14.33;11.30;;;5.20;86.20;;;;;;5051837;28;20228;-74
2021/01/16 03:56:34;;;;;;;14.52;11.15;;;5.20;86.00;;;;;;5051468;28;20644;-74
2021/01/16 03:59:01;;;;;;;16.95;11.65;;;5.20;85.80;;;;;;5046327;28;20189;-74
2021/01/16 04:01:27;;;;;;;13.73;10.52;;;5.20;85.60;;;;;;5045376;28;20224;-74
2021/01/16 04:03:53;;;;;;;14.00;9.70;;;5.20;85.30;;;;;;5050175;28;20185;-74
2021/01/16 04:06:18;;;;;;;14.33;10.80;;;5.20;85.80;;;;;;5052147;28;20864;-74
2021/01/16 04:08:44;;;;;;;14.47;10.00;;;5.20;85.80;;;;;;5050977;28;20177;-74
2021/01/16 04:11:11;;;;;;;14.13;10.57;;;5.10;85.50;;;;;;5051656;28;20412;-74
2021/01/16 04:13:37;;;;;;;12.88;10.32;;;5.20;85.00;;;;;;5054418;28;20173;-74
2021/01/16 04:16:03;;;;;;;12.60;10.30;;;5.10;85.20;;;;;;5055571;28;20177;-74
2021/01/16 04:18:29;;;;;;;14.93;11.48;;;5.10;85.20;;;;;;5055504;28;20185;-74
2021/01/16 04:20:55;;;;;;;15.80;10.37;;;5.10;85.20;;;;;;5054659;28;20804;-74
2021/01/16 04:23:21;;;;;;;15.65;11.02;;;5.20;85.50;;;;;;5044969;28;20181;-74
2021/01/16 04:25:47;;;;;;;13.67;10.03;;;5.10;85.70;;;;;;5055103;28;20177;-74
2021/01/16 04:28:12;;;;;;;14.10;10.50;;;5.10;85.60;;;;;;5054090;28;20193;-74
2021/01/16 04:30:38;;;;;;;15.93;11.60;;;5.10;85.60;;;;;;5054501;28;20213;-74
2021/01/16 04:33:04;;;;;;;16.13;11.60;;;5.20;85.90;;;;;;5054650;28;20185;-74
2021/01/16 04:35:30;;;;;;;15.50;11.15;;;5.10;86.00;;;;;;5055069;28;20631;-74
2021/01/16 04:37:56;;;;;;;14.07;10.73;;;5.10;85.60;;;;;;5054166;28;20213;-74
2021/01/16 04:40:22;;;;;;;14.80;11.07;;;5.10;85.50;;;;;;5054900;28;20174;-73
2021/01/16 04:42:51;;;;;;;14.85;11.10;;;5.20;85.70;;;;;;5054065;28;20201;-74
2021/01/16 04:45:17;;;;;;;15.38;11.63;;;5.20;85.40;;;;;;5049957;28;20272;-74
2021/01/16 04:47:45;;;;;;;16.30;11.75;;;5.20;85.20;;;;;;5052592;28;20173;-74
2021/01/16 04:50:16;;;;;;;12.52;10.35;;;5.20;85.00;;;;;;5054795;28;20268;-74
2021/01/16 04:52:42;;;;;;;14.93;12.30;;;5.20;84.70;;;;;;5052924;28;20189;-74
2021/01/16 04:55:10;;;;;;;15.15;11.57;;;5.20;85.70;;;;;;5054916;28;20558;-74
2021/01/16 04:57:38;;;;;;;15.00;11.95;;;5.20;84.90;;;;;;5055031;28;20172;-74
2021/01/16 05:00:11;;;;;;;13.73;11.00;;;5.10;84.40;;;;;;5053249;28;20188;-74
2021/01/16 05:02:41;;;;;;;14.93;11.82;;;5.10;85.10;;;;;;5054545;28;20657;-74
2021/01/16 05:05:11;;;;;;;17.58;11.60;;;5.20;85.40;;;;;;5054714;28;20185;-73
2021/01/16 05:07:37;;;;;;;12.88;10.90;;;5.10;85.60;;;;;;5054064;28;20210;-74
2021/01/16 05:10:06;;;;;;;15.15;11.93;;;5.10;86.60;;;;;;5053147;28;20204;-74
2021/01/16 05:12:31;;;;;;;14.07;10.82;;;5.10;86.50;;;;;;5053374;28;20223;-74
2021/01/16 05:15:03;;;;;;;15.40;11.90;;;5.20;86.40;;;;;;5052534;28;20703;-74
2021/01/16 05:17:32;;;;;;;12.43;11.13;;;5.20;85.60;;;;;;5052401;28;20269;-74
2021/01/16 05:20:01;;;;;;;13.85;10.57;;;5.20;85.10;;;;;;5053699;28;20174;-74
2021/01/16 05:22:27;;;;;;;13.85;10.60;;;5.20;85.10;;;;;;5054146;28;20201;-74
2021/01/16 05:25:01;;;;;;;13.98;10.95;;;5.20;85.40;;;;;;5053009;28;20166;-74
2021/01/16 05:27:33;;;;;;;12.60;10.35;;;5.20;85.30;;;;;;5054182;28;20166;-74
2021/01/16 05:30:02;;;;;;;16.25;11.30;;;5.20;85.10;;;;;;5053607;28;20181;-74
2021/01/16 05:32:30;;;;;;;14.82;11.45;;;5.20;85.10;;;;;;5053645;28;20173;-74
2021/01/16 05:35:12;;;;;;;14.75;10.50;;;5.20;85.40;;;;;;5053465;28;20183;-74
2021/01/16 05:37:38;;;;;;;14.20;10.05;;;5.20;85.50;;;;;;5053987;28;20266;-74
2021/01/16 05:40:04;;;;;;;13.53;10.77;;;5.30;85.50;;;;;;5053394;28;20256;-74
2021/01/16 05:42:30;;;;;;;15.23;11.55;;;5.30;84.50;;;;;;5053777;28;20209;-74
2021/01/16 05:44:55;;;;;;;11.82;10.43;;;5.30;84.10;;;;;;5052432;28;20658;-74
2021/01/16 05:47:22;;;;;;;17.37;12.20;;;5.30;84.20;;;;;;5052169;28;20196;-74
2021/01/16 05:49:48;;;;;;;13.30;11.13;;;5.30;84.20;;;;;;5051979;28;20576;-74
2021/01/16 05:52:17;;;;;;;13.60;10.45;;;5.30;84.40;;;;;;5054192;28;20292;-75
2021/01/16 05:54:43;;;;;;;12.93;11.00;;;5.30;84.40;;;;;;5052124;28;20209;-74
2021/01/16 05:57:16;;;;;;;15.07;10.80;;;5.30;84.50;;;;;;5053324;28;20660;-74
2021/01/16 05:59:46;;;;;;;12.10;9.43;;;5.30;84.30;;;;;;5052681;28;20573;-75
2021/01/16 06:02:13;;;;;;;11.75;10.15;;;5.40;84.10;;;;;;5052876;28;20581;-74
2021/01/16 06:04:48;;;;;;;12.48;10.25;;;5.50;84.20;;;;;;5053590;28;20170;-74
2021/01/16 06:07:14;;;;;;;13.70;10.18;;;5.40;83.60;;;;;;5053721;28;20224;-74
2021/01/16 06:09:41;;;;;;;13.03;10.00;;;5.40;83.20;;;;;;5053371;28;20182;-74
2021/01/16 06:12:12;;;;;;;12.98;10.65;;;5.40;83.20;;;;;;5052864;28;20435;-75
2021/01/16 06:14:42;;;;;;;13.80;10.85;;;5.40;83.60;;;;;;5053437;28;20262;-74
2021/01/16 06:17:11;;;;;;;13.50;10.55;;;5.40;83.90;;;;;;5051960;28;20186;-75
2021/01/16 06:19:42;;;;;;;13.30;9.75;;;5.30;84.10;;;;;;5038319;28;20592;-74
2021/01/16 06:22:12;;;;;;;13.88;11.13;;;5.30;84.60;;;;;;5051397;28;20247;-74
2021/01/16 06:24:43;;;;;;;13.27;9.40;;;5.30;84.00;;;;;;5053242;28;20186;-74
2021/01/16 06:27:21;;;;;;;17.63;11.02;;;5.30;83.80;;;;;;5052928;28;20299;-75
2021/01/16 06:29:57;;;;;;;13.98;10.95;;;5.30;83.70;;;;;;5032524;28;20212;-74
2021/01/16 06:32:24;;;;;;;14.40;10.02;;;5.30;83.90;;;;;;5052083;28;20185;-74
2021/01/16 06:35:07;;;;;;;12.15;10.02;;;5.20;84.20;;;;;;5049638;28;20645;-75
2021/01/16 06:37:40;;;;;;;14.13;10.88;;;5.20;84.70;;;;;;5049370;28;20523;-74
2021/01/16 06:40:06;;;;;;;14.40;10.05;;;5.20;84.60;;;;;;5051541;28;20370;-74
2021/01/16 06:42:36;;;;;;;13.15;10.48;;;5.20;84.00;;;;;;5052690;28;20214;-74
2021/01/16 06:45:07;;;;;;;12.90;10.45;;;5.20;84.90;;;;;;5052063;28;20197;-74
2021/01/16 06:47:34;;;;;;;14.73;10.23;;;5.30;84.80;;;;;;5052092;28;20189;-75
2021/01/16 06:50:01;;;;;;;12.25;9.80;;;5.30;84.30;;;;;;5050898;28;20196;-74
2021/01/16 06:52:34;;;;;;;13.05;10.30;;;5.30;84.00;;;;;;5052757;28;20181;-74
2021/01/16 06:55:03;;;;;;;12.48;10.38;;;5.30;83.30;;;;;;5052093;28;20256;-74
2021/01/16 06:57:30;;;;;;;12.23;10.55;;;5.40;83.10;;;;;;5052398;28;20188;-74
2021/01/16 07:00:06;;;;;;;13.07;10.25;;;5.40;83.80;;;;;;5050909;28;20170;-74
2021/01/16 07:02:34;;;;;;;15.25;11.38;;;5.40;83.30;;;;;;5049669;28;20542;-74
2021/01/16 07:05:20;;;;;;;13.40;10.38;;;5.40;83.10;;;;;;5050663;28;20174;-74
2021/01/16 07:07:51;;;;;;;12.10;9.65;;;5.40;83.00;;;;;;5052325;28;20174;-75
2021/01/16 07:10:18;;;;;;;13.35;10.70;;;5.40;82.80;;;;;;5052571;28;20164;-74
2021/01/16 07:12:50;;;;;;;14.60;10.45;;;5.40;82.70;;;;;;5051994;28;20203;-74
2021/01/16 07:15:22;;;;;;;12.88;10.27;;;5.40;82.40;;;;;;5052523;28;20213;-74
2021/01/16 07:17:49;;;;;;;12.70;9.93;;;5.40;82.50;;;;;;5051337;28;20566;-75
2021/01/16 07:20:15;;;;;;;14.15;10.75;;;5.40;82.70;;;;;;5050337;28;20555;-74
2021/01/16 07:22:43;;;;;;;12.90;9.90;;;5.30;84.00;;;;;;5050871;28;20708;-74
2021/01/16 07:25:11;;;;;;;12.75;9.63;;;5.30;83.70;;;;;;5051069;28;20182;-74
2021/01/16 07:27:38;;;;;;;12.52;9.48;;;5.30;84.20;;;;;;5051863;28;20614;-74
2021/01/16 07:30:07;;;;;;;12.50;10.57;;;5.30;84.60;;;;;;5049928;28;20252;-74
2021/01/16 07:32:32;;;;;;;11.80;9.90;;;5.30;84.40;;;;;;5051689;28;20193;-74
2021/01/16 07:34:58;;;;;;;12.73;10.30;;;5.30;84.00;;;;;;5051353;28;20213;-75
2021/01/16 07:37:25;;;;;;;12.15;9.85;;;5.30;83.10;;;;;;5052016;28;20189;-74
2021/01/16 07:39:57;;;;;;;12.43;10.45;;;5.40;83.80;;;;;;5051297;28;20178;-75
2021/01/16 07:42:26;;;;;;;15.23;10.55;;;5.40;83.20;;;;;;5051071;28;20194;-74
2021/01/16 07:45:08;;;;;;;15.00;9.60;;;5.40;83.30;;;;;;5051357;28;20217;-75
2021/01/16 07:47:40;;;;;;;13.70;10.77;;;5.40;83.00;;;;;;5055264;28;20260;-74
2021/01/16 07:50:14;;;;;;;10.02;8.40;;;5.40;82.20;;;;;;5055980;28;20217;-74
2021/01/16 07:52:52;;;;;;;11.57;8.95;;;5.40;81.70;;;;;;5057394;28;20183;-74
2021/01/16 07:55:19;;;;;;;12.68;9.75;;;5.40;81.20;;;;;;5041313;28;20199;-75
2021/01/16 07:57:50;;;;;;;10.77;9.55;;;5.50;81.20;;;;;;5057995;28;20204;-75
2021/01/16 08:00:17;;;;;;;12.90;10.00;;;5.50;81.00;;;;;;5057833;28;20178;-75
2021/01/16 08:02:57;;;;;;;12.48;9.90;;;5.50;80.80;;;;;;5058226;28;20213;-75
2021/01/16 08:05:38;;;;;;;11.68;9.70;;;5.50;80.90;;;;;;5057032;28;20195;-75
2021/01/16 08:08:07;;;;;;;12.73;9.07;;;5.50;80.50;;;;;;5057492;28;20614;-75
2021/01/16 08:10:34;;;;;;;12.95;9.70;;;5.50;80.40;;;;;;5057609;28;20174;-74
2021/01/16 08:13:01;;;;;;;11.00;9.65;;;5.50;80.20;;;;;;5057978;28;20182;-76
2021/01/16 08:15:30;;;;;;;12.48;9.45;;;5.60;80.10;;;;;;5057567;28;20178;-76
2021/01/16 08:18:02;;;;;;;13.77;10.55;;;5.60;79.50;;;;;;5057068;28;20182;-77
2021/01/16 08:20:35;;;;;;;12.60;9.80;;;5.70;79.80;;;;;;5051099;28;20553;-76
2021/01/16 08:23:03;;;;;;;13.32;10.48;;;5.70;79.40;;;;;;5057326;28;20257;-77
2021/01/16 08:25:31;;;;;;;12.60;9.25;;;5.70;79.20;;;;;;5058323;28;20178;-81
2021/01/16 08:28:01;;;;;;;11.77;9.95;;;5.80;79.30;;;;;;5056657;28;20180;-77
2021/01/16 08:30:32;;;;;;;11.98;9.98;;;5.80;78.90;;;;;;5058079;28;20508;-76
2021/01/16 08:33:05;;;;;;;12.88;10.52;;;5.90;78.40;;;;;;5057052;28;20246;-76
2021/01/16 08:35:51;;;;;;;12.70;10.15;;;5.90;78.00;;;;;;5058167;28;20250;-76
2021/01/16 08:38:17;;;;;;;13.80;10.20;;;5.90;78.00;;;;;;5057480;28;20185;-76
2021/01/16 08:41:02;;;;;;;14.67;10.00;;;5.90;78.00;;;;;;5058240;28;20714;-77
2021/01/16 08:43:28;;;;;;;13.90;10.30;;;5.90;77.50;;;;;;5058098;28;20267;-77
2021/01/16 08:46:24;;;;;;;12.68;10.45;;;5.80;77.80;;;;;;5057608;28;20176;-77
2021/01/16 08:49:08;;;;;;;14.20;11.25;;;5.80;77.90;;;;;;5057830;28;20189;-77
2021/01/16 08:51:36;;;;;;;11.60;10.30;;;5.80;78.10;;;;;;5045895;28;20641;-75
2021/01/16 08:54:11;;;;;;;12.85;11.45;;;5.80;78.00;;;;;;5065089;28;20185;-76
2021/01/16 08:56:39;;;;;;;12.55;10.23;;;5.80;78.40;;;;;;5061866;28;20180;-75
2021/01/16 08:59:19;;;;;;;15.43;10.05;;;5.80;78.40;;;;;;5063475;28;20177;-73
2021/01/16 09:01:47;;;;;;;13.23;9.50;;;5.80;78.00;;;;;;5063053;28;20197;-73
2021/01/16 09:04:17;;;;;;;13.82;10.15;;;5.70;78.20;;;;;;5041515;28;20323;-73
2021/01/16 09:06:42;;;;;;;16.65;10.38;;;5.70;78.70;;;;;;5063034;28;20628;-73
2021/01/16 09:09:10;;;;;;;13.03;9.27;;;5.70;78.70;;;;;;5060914;28;20256;-73
2021/01/16 09:11:36;;;;;;;13.18;9.23;;;5.70;78.60;;;;;;5061001;28;20184;-73
2021/01/16 09:14:03;;;;;;;12.77;9.85;;;5.70;78.50;;;;;;5043506;28;20181;-73
2021/01/16 09:16:34;;;;;;;11.30;9.77;;;5.70;78.60;;;;;;5062967;28;20367;-73
2021/01/16 09:19:00;;;;;;;13.93;11.68;;;5.70;78.30;;;;;;5054091;28;20170;-73
2021/01/16 09:21:27;;;;;;;16.85;11.45;;;5.70;79.10;;;;;;5054459;28;20205;-73
2021/01/16 09:23:55;;;;;;;15.07;10.73;;;5.70;78.90;;;;;;5053895;28;20583;-74
2021/01/16 09:26:21;;;;;;;14.85;11.60;;;5.70;78.60;;;;;;5053465;28;20186;-73
2021/01/16 09:28:49;;;;;;;15.23;10.80;;;5.70;79.00;;;;;;5054623;28;20178;-73
2021/01/16 09:31:39;;;;;;;12.77;10.45;;;5.70;79.50;;;;;;5052793;28;20178;-73
2021/01/16 09:34:18;;;;;;;12.85;10.85;;;5.70;78.50;;;;;;5053507;28;20173;-72
2021/01/16 09:36:57;;;;;;;1082.28;593.20;;;5.70;78.40;;;;;;5040366;28;20654;-73
2021/01/16 09:39:28;;;;;;;47.88;28.65;;;5.70;80.40;;;;;;5052537;28;20178;-72
2021/01/16 09:42:03;;;;;;;11.82;9.73;;;5.70;79.50;;;;;;5053445;28;20600;-74
2021/01/16 09:44:44;;;;;;;13.88;10.65;;;5.70;79.60;;;;;;5052303;28;20627;-72
2021/01/16 09:47:25;;;;;;;15.88;11.02;;;5.70;79.10;;;;;;5052968;28;20178;-72
2021/01/16 09:50:12;;;;;;;19.27;11.60;;;5.70;78.30;;;;;;5053494;28;20529;-72
2021/01/16 09:52:46;;;;;;;15.23;10.75;;;5.60;78.50;;;;;;5057670;28;20196;-73
2021/01/16 09:55:32;;;;;;;14.65;11.15;;;5.60;79.00;;;;;;5052389;28;20520;-73
2021/01/16 09:58:00;;;;;;;13.85;10.38;;;5.70;79.30;;;;;;5054212;28;20223;-73
2021/01/16 10:00:34;;;;;;;13.68;11.10;;;5.70;79.60;;;;;;5052806;28;20261;-72
2021/01/16 10:03:09;;;;;;;16.98;13.60;;;5.80;79.70;;;;;;5052710;28;20162;-73
2021/01/16 10:05:40;;;;;;;17.08;11.77;;;5.80;80.40;;;;;;5053639;28;20235;-72
2021/01/16 10:08:07;;;;;;;17.05;12.40;;;5.80;80.00;;;;;;5051744;28;20186;-73
2021/01/16 10:10:47;;;;;;;16.08;12.10;;;5.70;79.10;;;;;;5050792;28;20182;-72
2021/01/16 10:13:34;;;;;;;13.75;11.00;;;5.70;79.30;;;;;;5032956;28;20171;-72
2021/01/16 10:16:02;;;;;;;14.98;10.73;;;5.70;79.20;;;;;;5043459;28;20219;-72
2021/01/16 10:18:30;;;;;;;16.15;11.63;;;5.60;79.90;;;;;;5053456;28;20177;-72
2021/01/16 10:21:03;;;;;;;16.23;12.63;;;5.70;80.30;;;;;;5055904;28;20214;-73
2021/01/16 10:23:32;;;;;;;14.07;12.02;;;5.70;79.70;;;;;;5061641;28;20182;-72
2021/01/16 10:26:03;;;;;;;13.73;11.50;;;5.70;79.60;;;;;;5052505;28;20174;-73
2021/01/16 10:28:35;;;;;;;14.85;11.95;;;5.70;79.40;;;;;;5053254;28;20284;-72
2021/01/16 10:31:03;;;;;;;16.70;12.23;;;5.70;79.90;;;;;;5051937;28;20170;-72
2021/01/16 10:33:40;;;;;;;15.18;12.13;;;5.70;80.20;;;;;;5052544;28;20174;-72
2021/01/16 10:36:18;;;;;;;16.40;13.38;;;5.70;80.50;;;;;;5086033;28;20177;-73
2021/01/16 10:38:49;;;;;;;13.40;11.77;;;5.70;79.80;;;;;;5049707;28;20223;-72
2021/01/16 10:41:32;;;;;;;13.13;11.70;;;5.70;79.80;;;;;;5052018;28;20245;-72
2021/01/16 10:44:00;;;;;;;14.60;12.05;;;5.80;79.90;;;;;;5052400;28;20213;-73
2021/01/16 10:46:32;;;;;;;16.02;12.10;;;5.70;79.60;;;;;;5052005;28;20634;-73
2021/01/16 10:49:30;;;;;;;17.13;12.70;;;5.80;80.60;;;;;;5051280;28;20614;-73
2021/01/16 10:52:02;;;;;;;14.23;12.00;;;5.60;80.00;;;;;;5050365;28;20529;-73
2021/01/16 10:54:31;;;;;;;14.43;11.70;;;5.70;79.90;;;;;;5052082;28;20182;-73
2021/01/16 10:57:08;;;;;;;15.70;12.90;;;5.80;80.10;;;;;;5052393;28;20185;-73
2021/01/16 10:59:51;;;;;;;16.25;12.43;;;5.70;79.30;;;;;;5052604;28;20169;-72
2021/01/16 11:02:17;;;;;;;15.05;11.48;;;5.70;79.10;;;;;;5050340;28;20216;-72
2021/01/16 11:04:45;;;;;;;16.85;12.00;;;5.60;78.40;;;;;;5051342;28;20174;-71
2021/01/16 11:07:26;;;;;;;14.73;11.20;;;5.50;79.30;;;;;;5050841;28;20221;-71
2021/01/16 11:10:31;;;;;;;77.32;43.50;;;5.60;79.80;;;;;;5052184;28;20178;-71
2021/01/16 11:13:34;;;;;;;18.75;14.52;;;5.50;79.60;;;;;;5048994;28;20231;-73
2021/01/16 11:16:13;;;;;;;17.48;12.35;;;5.50;80.10;;;;;;5042746;28;20174;-72
2021/01/16 11:18:41;;;;;;;20.85;13.93;;;5.60;79.80;;;;;;5053206;28;20559;-72
2021/01/16 11:21:09;;;;;;;17.48;13.85;;;5.70;79.60;;;;;;5050849;28;20205;-72
2021/01/16 11:23:47;;;;;;;18.38;13.90;;;5.70;79.30;;;;;;5051803;28;20656;-72
2021/01/16 11:26:17;;;;;;;15.13;11.77;;;5.70;79.70;;;;;;5051293;28;20224;-72
2021/01/16 11:28:54;;;;;;;18.48;12.98;;;5.80;80.00;;;;;;5050341;28;20232;-72
2021/01/16 11:31:30;;;;;;;20.60;13.20;;;5.80;80.00;;;;;;5039533;28;20170;-72
2021/01/16 11:34:07;;;;;;;16.70;12.70;;;5.80;80.00;;;;;;5032257;28;20166;-73
2021/01/16 11:36:35;;;;;;;16.80;12.35;;;5.80;79.90;;;;;;5037954;28;20678;-73
2021/01/16 11:39:01;;;;;;;14.27;12.65;;;5.80;79.60;;;;;;5051511;28;20181;-74
2021/01/16 11:41:52;;;;;;;18.40;12.73;;;5.90;78.90;;;;;;5051526;28;20232;-73
2021/01/16 11:44:19;;;;;;;14.30;11.90;;;5.90;78.90;;;;;;5051121;28;20531;-73
2021/01/16 11:46:49;;;;;;;18.38;13.05;;;5.80;77.50;;;;;;5051765;28;20190;-71
2021/01/16 11:49:14;;;;;;;16.58;11.93;;;5.70;78.10;;;;;;5050599;28;20196;-72
2021/01/16 11:51:40;;;;;;;708.57;394.40;;;5.70;78.40;;;;;;5052163;28;20182;-71
2021/01/16 11:54:06;;;;;;;112.00;63.73;;;5.70;79.20;;;;;;5050856;28;20614;-72
2021/01/16 11:56:36;;;;;;;17.07;14.13;;;5.70;79.10;;;;;;5052065;28;20618;-71
2021/01/16 11:59:02;;;;;;;14.73;12.60;;;5.80;79.30;;;;;;5051897;28;20246;-72
2021/01/16 12:01:30;;;;;;;15.93;12.35;;;5.70;78.40;;;;;;5050417;28;20668;-71
2021/01/16 12:04:03;;;;;;;16.30;12.10;;;5.70;78.50;;;;;;5051993;28;20173;-71
2021/01/16 12:06:31;;;;;;;16.90;13.57;;;5.60;78.10;;;;;;5051342;28;20182;-71
2021/01/16 12:08:58;;;;;;;18.60;12.68;;;5.60;78.60;;;;;;5050472;28;20209;-71
2021/01/16 12:11:25;;;;;;;15.90;12.52;;;5.40;78.40;;;;;;5064560;28;20885;-71
2021/01/16 12:13:51;;;;;;;14.55;12.98;;;5.20;79.30;;;;;;5071829;28;20173;-72
2021/01/16 12:16:17;;;;;;;14.23;11.73;;;5.30;79.60;;;;;;5070691;28;20629;-71
2021/01/16 12:18:43;;;;;;;14.02;12.30;;;5.40;79.80;;;;;;5071654;28;20187;-71
2021/01/16 12:21:10;;;;;;;13.83;12.20;;;5.30;79.90;;;;;;5070839;28;20205;-70
2021/01/16 12:23:45;;;;;;;15.13;11.90;;;5.30;79.80;;;;;;5071498;28;20474;-73
2021/01/16 12:26:15;;;;;;;12.13;10.18;;;5.30;79.60;;;;;;5070916;28;20172;-73
2021/01/16 12:28:51;;;;;;;14.88;11.75;;;5.30;79.70;;;;;;5071631;28;20174;-71
2021/01/16 12:31:24;;;;;;;14.02;10.77;;;5.40;79.90;;;;;;5070943;28;20165;-74
2021/01/16 12:33:51;;;;;;;14.73;11.23;;;5.40;79.70;;;;;;5073636;28;20176;-72
2021/01/16 12:36:19;;;;;;;13.13;11.07;;;5.40;79.30;;;;;;5074723;28;20264;-72
2021/01/16 12:38:51;;;;;;;15.05;11.55;;;5.40;79.00;;;;;;5075594;28;20223;-73
2021/01/16 12:41:24;;;;;;;13.93;10.52;;;5.40;79.10;;;;;;5074194;28;20657;-72
2021/01/16 12:43:51;;;;;;;15.73;11.93;;;5.50;79.10;;;;;;5075075;28;20239;-72
2021/01/16 12:46:18;;;;;;;14.48;11.50;;;5.40;81.00;;;;;;5072663;28;20174;-73
2021/01/16 12:48:44;;;;;;;14.90;11.55;;;5.50;79.20;;;;;;5073932;28;20173;-72
2021/01/16 12:51:15;;;;;;;15.43;11.00;;;5.40;79.20;;;;;;5073437;28;20227;-73
2021/01/16 12:53:44;;;;;;;12.93;10.95;;;5.40;78.70;;;;;;5075552;28;20253;-73
2021/01/16 12:56:21;;;;;;;13.25;10.80;;;5.50;78.90;;;;;;5074840;28;20173;-73
2021/01/16 12:58:49;;;;;;;13.60;11.05;;;5.50;78.70;;;;;;5074251;28;20185;-72